Time;durP1;ratioP1;P1;durP2;ratioP2;P2;SDS_P1;SDS_P2;PMS_P1;PMS_P2;Temp;Humidity;BMP_temperature;BMP_pressure;BME280_temperature;BME280_humidity;BME280_pressure;Samples;Min_cycle;Max_cycle;Signal;HPM_P1;HPM_P2
2022/11/15 00:01:52;;;;;;;11.95;7.57;;;7.90;99.90;;;;;;5053130;28;20048;-67
2022/11/15 00:04:18;;;;;;;10.25;7.13;;;7.60;99.90;;;;;;5055311;28;20056;-67
2022/11/15 00:06:44;;;;;;;10.10;7.38;;;8.00;99.90;;;;;;5056311;28;20163;-67
2022/11/15 00:09:09;;;;;;;11.35;7.50;;;7.50;99.90;;;;;;5039081;28;20110;-67
2022/11/15 00:11:35;;;;;;;12.18;7.35;;;7.50;99.90;;;;;;5056354;28;20090;-67
2022/11/15 00:14:02;;;;;;;10.15;7.20;;;7.50;99.90;;;;;;5038313;28;20056;-68
2022/11/15 00:16:28;;;;;;;9.98;6.68;;;7.60;99.90;;;;;;5056154;28;20048;-67
2022/11/15 00:18:53;;;;;;;10.05;7.07;;;7.60;99.90;;;;;;5056683;28;20168;-68
2022/11/15 00:21:19;;;;;;;10.40;6.75;;;7.60;99.90;;;;;;5038533;28;20397;-68
2022/11/15 00:23:45;;;;;;;13.13;6.85;;;7.60;99.90;;;;;;5056452;28;20037;-68
2022/11/15 00:26:12;;;;;;;12.27;7.82;;;7.70;99.90;;;;;;5038345;28;20041;-67
2022/11/15 00:28:39;;;;;;;11.63;7.70;;;7.70;99.90;;;;;;5055969;28;20053;-67
2022/11/15 00:31:08;;;;;;;12.20;7.97;;;7.70;99.90;;;;;;5038633;28;20048;-68
2022/11/15 00:33:34;;;;;;;12.63;7.55;;;7.70;99.90;;;;;;5038309;28;20429;-67
2022/11/15 00:36:05;;;;;;;12.75;8.57;;;7.70;99.90;;;;;;5056312;28;20098;-67
2022/11/15 00:38:32;;;;;;;11.27;7.97;;;7.80;99.90;;;;;;5055885;28;20045;-68
2022/11/15 00:40:58;;;;;;;12.45;8.30;;;7.80;99.90;;;;;;5055525;28;20524;-71
2022/11/15 00:43:24;;;;;;;12.25;8.30;;;8.20;99.90;;;;;;5056077;28;20045;-67
2022/11/15 00:45:49;;;;;;;13.52;8.93;;;7.80;99.90;;;;;;5056234;28;20140;-68
2022/11/15 00:48:15;;;;;;;11.77;8.13;;;8.00;99.90;;;;;;5038379;28;20040;-67
2022/11/15 00:50:40;;;;;;;11.55;7.85;;;7.90;99.90;;;;;;5055616;28;20440;-67
2022/11/15 00:53:06;;;;;;;12.10;7.95;;;7.90;99.90;;;;;;5037787;28;20041;-68
2022/11/15 00:55:32;;;;;;;10.73;7.45;;;8.10;99.90;;;;;;5055580;28;20045;-68
2022/11/15 00:57:57;;;;;;;11.07;7.82;;;7.90;99.90;;;;;;5021473;28;20049;-68
2022/11/15 01:00:23;;;;;;;11.85;7.45;;;7.90;99.90;;;;;;5038421;28;20076;-68
2022/11/15 01:02:49;;;;;;;12.23;7.28;;;8.60;99.90;;;;;;5037844;28;20053;-67
2022/11/15 01:05:14;;;;;;;12.30;7.30;;;8.00;99.90;;;;;;5037579;28;20045;-68
2022/11/15 01:07:40;;;;;;;12.45;8.25;;;8.00;99.90;;;;;;5055568;28;20094;-68
2022/11/15 01:10:06;;;;;;;11.82;7.57;;;8.00;99.90;;;;;;5055340;28;20386;-68
2022/11/15 01:12:33;;;;;;;11.57;7.47;;;8.00;99.90;;;;;;5055360;28;20092;-67
2022/11/15 01:14:59;;;;;;;12.60;8.20;;;8.00;99.90;;;;;;5054720;28;20100;-67
2022/11/15 01:17:25;;;;;;;12.65;8.02;;;8.00;99.90;;;;;;5055090;28;20048;-67
2022/11/15 01:19:50;;;;;;;13.15;7.72;;;8.00;99.90;;;;;;5055043;28;20049;-68
2022/11/15 01:22:16;;;;;;;12.63;7.93;;;8.00;99.90;;;;;;5055107;28;20081;-69
2022/11/15 01:24:42;;;;;;;13.20;7.95;;;8.00;99.90;;;;;;5055027;28;20098;-68
2022/11/15 01:27:07;;;;;;;10.40;7.22;;;8.00;99.90;;;;;;5055001;28;20048;-68
2022/11/15 01:29:33;;;;;;;13.75;7.95;;;8.00;99.90;;;;;;5055422;28;20446;-68
2022/11/15 01:31:59;;;;;;;13.88;8.35;;;8.10;99.90;;;;;;5037217;28;20432;-68
2022/11/15 01:34:25;;;;;;;12.38;8.02;;;8.10;99.90;;;;;;5054930;28;20107;-67
2022/11/15 01:36:50;;;;;;;12.35;7.50;;;8.00;99.90;;;;;;5037718;28;20366;-68
2022/11/15 01:39:16;;;;;;;11.90;7.88;;;8.00;99.90;;;;;;5037173;28;20128;-68
2022/11/15 01:41:42;;;;;;;12.40;7.80;;;8.90;99.90;;;;;;5055367;28;20059;-68
2022/11/15 01:44:33;;;;;;;12.50;7.50;;;8.30;99.90;;;;;;5037028;28;20172;-68
2022/11/15 01:47:06;;;;;;;11.88;7.20;;;8.10;99.90;;;;;;5054623;28;20084;-67
2022/11/15 01:49:34;;;;;;;11.52;7.55;;;8.10;99.90;;;;;;5054557;28;20078;-68
2022/11/15 01:52:04;;;;;;;12.23;7.22;;;8.10;99.90;;;;;;5054399;28;20049;-68
2022/11/15 01:54:30;;;;;;;13.32;7.78;;;8.10;99.90;;;;;;5055175;28;20041;-68
2022/11/15 01:57:03;;;;;;;11.23;7.35;;;8.10;99.90;;;;;;5054369;28;20095;-68
2022/11/15 01:59:30;;;;;;;13.23;8.15;;;8.10;99.90;;;;;;5054913;28;20433;-68
2022/11/15 02:01:56;;;;;;;12.88;7.45;;;8.10;99.90;;;;;;5054380;28;20053;-68
2022/11/15 02:04:31;;;;;;;12.23;8.02;;;8.10;99.90;;;;;;5054266;28;20083;-68
2022/11/15 02:06:57;;;;;;;11.85;7.15;;;8.10;99.90;;;;;;5054136;28;20045;-68
2022/11/15 02:09:23;;;;;;;13.13;8.60;;;8.10;99.90;;;;;;5054682;28;20063;-68
2022/11/15 02:11:50;;;;;;;13.05;8.35;;;8.10;99.90;;;;;;5053652;28;20129;-68
2022/11/15 02:14:19;;;;;;;12.57;7.80;;;8.10;99.90;;;;;;5036437;28;20473;-67
2022/11/15 02:17:01;;;;;;;12.32;8.25;;;8.20;99.90;;;;;;5054544;28;20044;-68
2022/11/15 02:19:32;;;;;;;14.38;8.10;;;8.20;99.90;;;;;;5020266;28;20053;-68
2022/11/15 02:22:29;;;;;;;13.20;7.97;;;8.10;99.90;;;;;;5053899;28;20189;-68
2022/11/15 02:25:23;;;;;;;11.80;8.07;;;8.10;99.90;;;;;;5053951;28;20056;-68
2022/11/15 02:28:07;;;;;;;14.82;9.25;;;8.20;99.90;;;;;;5053004;28;20056;-68
2022/11/15 02:30:51;;;;;;;14.68;8.32;;;8.10;99.90;;;;;;5053856;28;20097;-68
2022/11/15 02:33:33;;;;;;;12.15;7.03;;;8.20;99.90;;;;;;5054008;28;20049;-68
2022/11/15 02:35:59;;;;;;;14.05;7.53;;;8.20;99.90;;;;;;5053649;28;20053;-67
2022/11/15 02:38:37;;;;;;;17.00;8.57;;;8.30;99.90;;;;;;5054201;28;20052;-68
2022/11/15 02:41:16;;;;;;;13.23;7.70;;;8.20;99.90;;;;;;5036454;28;20053;-68
2022/11/15 02:44:15;;;;;;;13.32;8.65;;;8.20;99.90;;;;;;5053577;28;20045;-68
2022/11/15 02:47:13;;;;;;;14.65;8.50;;;8.20;99.90;;;;;;5054098;28;20057;-68
2022/11/15 02:49:41;;;;;;;14.30;8.15;;;8.20;99.90;;;;;;5053713;28;20070;-68
2022/11/15 02:52:07;;;;;;;13.55;8.15;;;8.20;99.90;;;;;;5053266;28;20155;-68
2022/11/15 02:54:34;;;;;;;12.90;8.60;;;8.40;99.90;;;;;;5053422;28;20053;-68
2022/11/15 02:57:05;;;;;;;13.88;8.55;;;8.20;99.90;;;;;;5036583;28;20041;-68
2022/11/15 02:59:59;;;;;;;14.50;7.72;;;8.40;99.90;;;;;;5053853;28;20052;-68
2022/11/15 03:02:37;;;;;;;11.52;7.78;;;8.20;99.90;;;;;;5035763;28;20063;-68
2022/11/15 03:05:11;;;;;;;14.52;8.43;;;8.30;99.90;;;;;;5019487;28;20084;-68
2022/11/15 03:08:21;;;;;;;14.13;8.38;;;8.30;99.90;;;;;;5053165;28;20060;-67
2022/11/15 03:11:08;;;;;;;15.13;8.23;;;8.30;99.90;;;;;;4956524;28;20053;-68
2022/11/15 03:13:59;;;;;;;11.52;8.10;;;8.30;99.90;;;;;;4972254;28;20067;-67
2022/11/15 03:16:38;;;;;;;13.75;8.60;;;8.30;99.90;;;;;;5035164;28;20057;-67
2022/11/15 03:19:24;;;;;;;13.77;8.60;;;8.40;99.90;;;;;;5036406;28;20060;-68
2022/11/15 03:21:52;;;;;;;14.35;8.73;;;8.40;99.90;;;;;;5034910;28;20061;-67
2022/11/15 03:24:20;;;;;;;13.82;8.30;;;8.40;99.90;;;;;;5019423;28;20049;-67
2022/11/15 03:26:48;;;;;;;13.98;8.35;;;8.60;99.90;;;;;;5053901;28;20057;-68
2022/11/15 03:29:20;;;;;;;14.00;8.40;;;8.40;99.90;;;;;;5053068;28;20044;-68
2022/11/15 03:31:51;;;;;;;14.07;8.35;;;8.40;99.90;;;;;;5053646;28;20052;-68
2022/11/15 03:34:38;;;;;;;15.00;8.85;;;8.40;99.90;;;;;;5053732;28;20049;-68
2022/11/15 03:37:05;;;;;;;14.95;9.30;;;8.40;99.90;;;;;;5053609;28;20057;-68
2022/11/15 03:39:31;;;;;;;13.85;8.48;;;8.40;99.90;;;;;;5057046;28;20088;-68
2022/11/15 03:42:25;;;;;;;13.32;8.40;;;8.40;99.90;;;;;;5057512;28;20103;-67
2022/11/15 03:45:08;;;;;;;17.17;8.82;;;8.40;99.90;;;;;;5057285;28;20053;-67
2022/11/15 03:47:39;;;;;;;17.45;9.38;;;8.50;99.90;;;;;;5038880;28;20060;-66
2022/11/15 03:50:21;;;;;;;14.32;9.27;;;8.90;99.90;;;;;;5057431;28;20076;-66
2022/11/15 03:52:48;;;;;;;15.43;9.65;;;8.50;99.90;;;;;;5056727;28;20037;-67
2022/11/15 03:55:18;;;;;;;18.35;9.77;;;8.50;99.90;;;;;;5057264;28;20124;-66
2022/11/15 03:57:44;;;;;;;16.70;10.00;;;8.50;99.90;;;;;;5039038;28;20053;-67
2022/11/15 04:00:10;;;;;;;20.25;10.63;;;8.90;99.90;;;;;;5038864;28;20052;-66
2022/11/15 04:02:36;;;;;;;19.95;10.63;;;8.60;99.90;;;;;;5056906;28;20102;-66
2022/11/15 04:05:03;;;;;;;18.75;10.82;;;8.60;99.90;;;;;;5056813;28;20041;-66
2022/11/15 04:07:29;;;;;;;16.83;10.13;;;8.60;99.90;;;;;;5038913;28;20053;-66
2022/11/15 04:10:03;;;;;;;18.52;10.55;;;8.60;99.90;;;;;;5056390;28;20500;-66
2022/11/15 04:12:33;;;;;;;18.65;11.35;;;8.60;99.90;;;;;;5056336;28;20124;-66
2022/11/15 04:15:07;;;;;;;23.30;11.60;;;8.60;99.90;;;;;;5057123;28;20092;-66
2022/11/15 04:17:40;;;;;;;20.58;11.68;;;8.60;99.90;;;;;;5056289;28;20048;-66
2022/11/15 04:25:42;;;;;;;20.63;11.32;;;8.70;99.90;;;;;;5055939;28;20546;-66
2022/11/15 04:28:07;;;;;;;25.45;13.15;;;8.70;99.90;;;;;;5055799;28;20501;-66
2022/11/15 04:30:33;;;;;;;25.20;12.55;;;8.70;99.90;;;;;;5022822;28;20055;-66
2022/11/15 04:32:59;;;;;;;22.20;13.13;;;8.70;99.90;;;;;;5056044;28;20040;-66
2022/11/15 04:35:25;;;;;;;21.45;12.13;;;8.70;99.90;;;;;;5055917;28;20036;-66
2022/11/15 04:37:50;;;;;;;22.02;13.50;;;8.80;99.90;;;;;;5055836;28;20098;-66
2022/11/15 04:40:16;;;;;;;23.50;12.40;;;8.80;99.90;;;;;;5055628;28;20045;-66
2022/11/15 04:42:44;;;;;;;24.88;13.45;;;8.80;99.90;;;;;;5038210;28;20494;-66
2022/11/15 04:45:10;;;;;;;22.75;12.88;;;8.90;99.90;;;;;;5055783;28;20059;-67
2022/11/15 04:47:36;;;;;;;20.83;12.68;;;8.90;99.90;;;;;;5055687;28;20045;-66
2022/11/15 04:50:03;;;;;;;23.23;13.05;;;8.80;99.90;;;;;;5054708;28;20098;-66
2022/11/15 04:52:28;;;;;;;21.38;12.13;;;8.90;99.90;;;;;;5055476;28;20049;-66
2022/11/15 04:54:54;;;;;;;23.92;12.73;;;8.90;99.90;;;;;;5038047;28;20055;-66
2022/11/15 04:57:20;;;;;;;20.60;12.40;;;9.00;99.90;;;;;;5055516;28;20140;-66
2022/11/15 04:59:46;;;;;;;21.17;12.25;;;9.00;99.90;;;;;;5055771;28;20056;-66
2022/11/15 05:02:11;;;;;;;22.00;12.30;;;9.00;99.90;;;;;;5056264;28;20047;-67
2022/11/15 05:04:37;;;;;;;17.30;11.95;;;9.00;99.90;;;;;;5055923;28;20083;-67
2022/11/15 05:07:06;;;;;;;18.92;11.70;;;9.10;99.90;;;;;;5055826;28;20052;-67
2022/11/15 05:09:31;;;;;;;18.35;11.07;;;9.10;99.90;;;;;;5055829;28;20381;-67
2022/11/15 05:11:57;;;;;;;18.77;10.70;;;9.00;99.90;;;;;;5054856;28;20053;-66
2022/11/15 05:14:23;;;;;;;19.42;11.35;;;9.10;99.90;;;;;;5055178;28;20253;-66
2022/11/15 05:16:49;;;;;;;18.73;10.95;;;9.10;99.90;;;;;;5055678;28;20049;-66
2022/11/15 05:19:14;;;;;;;17.83;10.45;;;9.10;99.90;;;;;;5055619;28;20397;-66
2022/11/15 05:21:40;;;;;;;21.08;11.25;;;9.10;99.90;;;;;;5037207;28;20049;-66
2022/11/15 05:24:06;;;;;;;19.73;11.02;;;9.10;99.90;;;;;;5055533;28;20041;-67
2022/11/15 05:26:32;;;;;;;17.38;10.90;;;9.20;99.90;;;;;;5055062;28;20379;-67
2022/11/15 05:28:59;;;;;;;17.55;10.88;;;9.20;99.90;;;;;;5054978;28;20053;-66
2022/11/15 05:31:26;;;;;;;17.73;10.43;;;9.30;99.90;;;;;;5054890;28;20481;-66
2022/11/15 05:33:53;;;;;;;17.67;10.48;;;9.30;99.90;;;;;;5054510;28;20539;-67
2022/11/15 05:36:48;;;;;;;18.98;11.50;;;9.30;99.90;;;;;;5036862;28;20051;-67
2022/11/15 05:39:14;;;;;;;18.25;10.30;;;9.30;99.90;;;;;;5041556;28;20053;-66
2022/11/15 05:41:52;;;;;;;15.85;10.15;;;9.30;99.90;;;;;;5054619;28;20048;-66
2022/11/15 05:44:21;;;;;;;16.30;10.82;;;9.40;99.90;;;;;;5055436;28;20041;-66
2022/11/15 05:46:48;;;;;;;18.17;10.90;;;9.50;99.90;;;;;;5054629;28;20128;-66
2022/11/15 05:49:18;;;;;;;16.15;10.63;;;9.40;99.90;;;;;;5054570;28;20049;-66
2022/11/15 05:51:46;;;;;;;17.95;9.68;;;9.40;99.90;;;;;;5054475;28;20049;-66
2022/11/15 05:54:12;;;;;;;17.13;10.63;;;9.40;99.90;;;;;;5036571;28;20103;-66
2022/11/15 05:56:37;;;;;;;16.10;9.55;;;9.50;99.90;;;;;;5054370;28;20049;-66
2022/11/15 05:59:04;;;;;;;17.45;10.48;;;9.50;99.90;;;;;;5054251;28;20500;-66
2022/11/15 06:01:30;;;;;;;17.27;9.93;;;9.50;99.90;;;;;;5055029;28;20400;-67
2022/11/15 06:03:55;;;;;;;16.85;9.73;;;9.60;99.90;;;;;;5054263;28;20045;-67
2022/11/15 06:06:21;;;;;;;17.35;10.60;;;9.60;99.90;;;;;;5054139;28;20111;-66
2022/11/15 06:08:47;;;;;;;13.48;9.25;;;9.60;99.90;;;;;;5054099;28;20128;-66
2022/11/15 06:11:13;;;;;;;16.52;9.85;;;9.70;99.90;;;;;;5053932;28;20049;-66
2022/11/15 06:13:39;;;;;;;16.80;10.13;;;9.70;99.90;;;;;;5053951;28;20059;-66
2022/11/15 06:16:05;;;;;;;17.02;10.45;;;9.70;99.90;;;;;;5036441;28;20044;-66
2022/11/15 06:18:35;;;;;;;14.48;9.77;;;9.80;99.90;;;;;;5054483;28;20041;-66
2022/11/15 06:21:01;;;;;;;16.80;10.20;;;9.80;99.90;;;;;;5053927;28;20045;-67
2022/11/15 06:23:28;;;;;;;16.50;10.10;;;9.80;99.90;;;;;;5053870;28;20037;-68
2022/11/15 06:25:57;;;;;;;14.82;9.45;;;9.90;99.90;;;;;;5053780;28;20049;-68
2022/11/15 06:28:22;;;;;;;15.65;10.05;;;9.90;99.90;;;;;;5053775;28;20043;-67
2022/11/15 06:30:48;;;;;;;17.02;9.73;;;10.00;99.90;;;;;;5020539;28;20057;-68
2022/11/15 06:33:13;;;;;;;14.77;9.70;;;10.00;99.90;;;;;;5053648;28;20052;-68
2022/11/15 06:35:39;;;;;;;17.08;9.68;;;10.10;99.90;;;;;;5053662;28;20049;-68
2022/11/15 06:38:07;;;;;;;15.93;10.32;;;10.10;99.90;;;;;;5054008;28;20049;-67
2022/11/15 06:40:38;;;;;;;15.07;9.63;;;10.20;99.90;;;;;;5053619;28;20053;-67
2022/11/15 06:43:04;;;;;;;15.43;9.82;;;10.20;99.90;;;;;;5053614;28;20095;-66
2022/11/15 06:45:30;;;;;;;16.02;10.57;;;10.30;99.90;;;;;;5053410;28;20131;-67
2022/11/15 06:47:56;;;;;;;13.88;9.20;;;10.30;99.90;;;;;;5019610;28;20171;-67
2022/11/15 06:50:22;;;;;;;15.13;8.95;;;10.30;99.90;;;;;;5053861;28;20486;-67
2022/11/15 06:52:48;;;;;;;15.02;9.63;;;10.40;99.90;;;;;;5053258;28;20049;-67
2022/11/15 06:55:13;;;;;;;12.85;8.82;;;10.40;99.90;;;;;;5053431;28;20135;-67
2022/11/15 06:57:47;;;;;;;12.82;9.50;;;10.40;99.90;;;;;;5053628;28;20138;-66
2022/11/15 07:00:13;;;;;;;16.40;10.27;;;10.40;99.90;;;;;;5053433;28;20060;-67
2022/11/15 07:02:39;;;;;;;16.08;9.63;;;10.40;99.90;;;;;;5053987;28;20048;-66
2022/11/15 07:05:05;;;;;;;16.55;9.05;;;10.40;99.90;;;;;;5053300;28;20489;-66
2022/11/15 07:07:31;;;;;;;13.77;9.07;;;10.50;99.90;;;;;;5036129;28;20103;-67
2022/11/15 07:09:56;;;;;;;14.57;8.77;;;10.50;99.90;;;;;;5052548;28;20049;-67
2022/11/15 07:12:22;;;;;;;13.55;8.95;;;10.50;99.90;;;;;;5051846;28;20056;-67
2022/11/15 07:14:48;;;;;;;14.85;9.10;;;10.50;99.90;;;;;;5052331;28;20072;-67
2022/11/15 07:17:13;;;;;;;15.95;9.65;;;10.60;99.90;;;;;;5052535;28;20049;-67
2022/11/15 07:19:39;;;;;;;12.43;8.18;;;10.60;99.90;;;;;;5035070;28;20124;-67
2022/11/15 07:22:05;;;;;;;13.25;8.18;;;10.60;99.90;;;;;;5052782;28;20042;-66
2022/11/15 07:24:30;;;;;;;13.93;8.50;;;10.60;99.90;;;;;;5052407;28;20128;-67
2022/11/15 07:26:56;;;;;;;14.88;8.63;;;10.60;99.90;;;;;;5052881;28;20052;-64
2022/11/15 07:29:22;;;;;;;13.75;8.70;;;10.60;99.90;;;;;;5052415;28;20049;-64
2022/11/15 07:31:49;;;;;;;13.30;8.60;;;10.70;99.90;;;;;;5053109;28;20045;-64
2022/11/15 07:34:15;;;;;;;13.60;8.65;;;10.70;99.90;;;;;;5052641;28;20047;-63
2022/11/15 07:36:40;;;;;;;13.48;8.63;;;10.70;99.90;;;;;;5052571;28;20049;-64
2022/11/15 07:39:06;;;;;;;11.48;8.63;;;10.70;99.90;;;;;;5053023;28;20107;-64
2022/11/15 07:41:32;;;;;;;13.13;8.73;;;10.70;99.90;;;;;;5034408;28;20473;-64
2022/11/15 07:43:57;;;;;;;12.50;8.18;;;10.70;99.90;;;;;;5052430;28;20104;-64
2022/11/15 07:46:23;;;;;;;11.07;8.48;;;10.80;99.90;;;;;;5053210;28;20045;-64
2022/11/15 07:48:48;;;;;;;11.15;7.85;;;10.80;99.90;;;;;;5052925;28;20389;-64
2022/11/15 07:51:16;;;;;;;13.85;8.65;;;10.80;99.90;;;;;;5053119;28;20049;-64
2022/11/15 07:53:43;;;;;;;12.68;8.50;;;10.90;99.90;;;;;;5052760;28;20053;-64
2022/11/15 07:56:09;;;;;;;11.32;8.60;;;10.90;99.90;;;;;;5052731;28;20091;-64
2022/11/15 07:58:34;;;;;;;13.77;8.55;;;10.90;99.90;;;;;;5053794;28;20044;-64
2022/11/15 08:01:09;;;;;;;13.18;8.68;;;10.90;99.90;;;;;;5035662;28;20045;-64
2022/11/15 08:03:35;;;;;;;12.40;8.45;;;11.10;99.90;;;;;;5052674;28;20061;-64
2022/11/15 08:06:02;;;;;;;13.40;8.65;;;11.00;99.90;;;;;;5035447;28;20048;-64
2022/11/15 08:08:28;;;;;;;12.05;8.70;;;11.00;99.90;;;;;;5052655;28;20123;-64
2022/11/15 08:10:53;;;;;;;11.38;8.50;;;11.00;99.90;;;;;;5052768;28;20088;-64
2022/11/15 08:13:19;;;;;;;13.18;8.77;;;11.00;99.90;;;;;;5053108;28;20450;-64
2022/11/15 08:15:45;;;;;;;13.27;8.85;;;11.10;99.90;;;;;;5034766;28;20041;-65
2022/11/15 08:18:14;;;;;;;12.40;9.68;;;11.40;99.90;;;;;;5052355;28;20085;-64
2022/11/15 08:20:40;;;;;;;13.90;9.63;;;11.10;99.90;;;;;;5052674;28;20507;-64
2022/11/15 08:23:07;;;;;;;15.80;9.60;;;11.10;99.90;;;;;;5052184;28;20048;-64
2022/11/15 08:25:34;;;;;;;12.35;9.13;;;11.20;99.90;;;;;;5055416;28;20041;-64
2022/11/15 08:28:03;;;;;;;12.60;8.98;;;11.20;99.90;;;;;;5056283;28;20037;-64
2022/11/15 08:30:30;;;;;;;13.40;9.40;;;11.20;99.90;;;;;;5055536;28;20481;-64
2022/11/15 08:32:58;;;;;;;14.00;9.45;;;11.20;99.90;;;;;;5055713;28;20167;-66
2022/11/15 08:35:24;;;;;;;15.20;10.05;;;11.20;99.90;;;;;;5055926;28;20091;-64
2022/11/15 08:37:52;;;;;;;12.57;9.35;;;11.30;99.90;;;;;;5056388;28;20044;-65
2022/11/15 08:40:19;;;;;;;13.50;9.77;;;11.30;99.90;;;;;;5055646;28;20128;-65
2022/11/15 08:42:48;;;;;;;13.93;9.35;;;11.30;99.90;;;;;;5055736;28;20090;-64
2022/11/15 08:45:14;;;;;;;15.98;10.35;;;11.30;99.90;;;;;;5055717;28;20040;-65
2022/11/15 08:47:40;;;;;;;15.02;9.88;;;11.40;99.90;;;;;;5055726;28;20079;-64
2022/11/15 08:50:06;;;;;;;15.23;10.52;;;11.40;99.90;;;;;;5037875;28;20037;-64
2022/11/15 08:52:33;;;;;;;14.82;10.00;;;11.30;99.90;;;;;;5055635;28;20094;-65
2022/11/15 08:54:58;;;;;;;14.02;10.20;;;11.30;99.90;;;;;;5056316;28;20041;-64
2022/11/15 08:57:24;;;;;;;15.05;9.85;;;11.30;99.90;;;;;;5056043;28;20454;-64
2022/11/15 08:59:50;;;;;;;13.65;9.90;;;11.30;99.90;;;;;;5055860;28;20037;-64
2022/11/15 09:02:16;;;;;;;15.45;10.23;;;11.30;99.90;;;;;;5056050;28;20469;-64
2022/11/15 09:04:42;;;;;;;13.90;9.90;;;11.30;99.90;;;;;;5055748;28;20084;-64
2022/11/15 09:07:09;;;;;;;15.50;10.23;;;11.30;99.90;;;;;;5055102;28;20516;-65
2022/11/15 09:09:35;;;;;;;15.85;10.90;;;11.30;99.90;;;;;;5056162;28;20060;-64
2022/11/15 09:12:01;;;;;;;13.98;9.98;;;11.30;99.90;;;;;;5055015;28;20465;-64
2022/11/15 09:14:26;;;;;;;15.05;10.25;;;11.30;99.90;;;;;;5055799;28;20045;-65
2022/11/15 09:16:52;;;;;;;16.05;10.85;;;11.30;99.90;;;;;;5055067;28;20048;-65
2022/11/15 09:19:18;;;;;;;14.05;10.63;;;11.30;99.90;;;;;;5055717;28;20112;-65
2022/11/15 09:21:43;;;;;;;15.77;10.95;;;11.30;99.90;;;;;;5037417;28;20080;-64
2022/11/15 09:24:09;;;;;;;13.63;10.25;;;11.30;99.90;;;;;;5055071;28;20041;-65
2022/11/15 09:26:34;;;;;;;13.90;10.43;;;11.40;99.90;;;;;;5037222;28;20053;-64
2022/11/15 09:29:01;;;;;;;13.38;9.82;;;11.40;99.90;;;;;;5055567;28;20139;-65
2022/11/15 09:31:27;;;;;;;13.45;10.18;;;11.40;99.90;;;;;;5037357;28;20041;-64
2022/11/15 09:33:53;;;;;;;14.20;9.95;;;11.50;99.90;;;;;;5055596;28;20124;-65
2022/11/15 09:36:18;;;;;;;13.65;9.60;;;11.40;99.90;;;;;;5037243;28;20537;-65
2022/11/15 09:38:44;;;;;;;12.38;9.32;;;11.50;99.90;;;;;;5055526;28;20094;-65
2022/11/15 09:41:13;;;;;;;13.15;9.93;;;11.50;99.90;;;;;;5055026;28;20044;-64
2022/11/15 09:43:54;;;;;;;13.32;9.40;;;11.60;99.90;;;;;;5054740;28;20040;-65
2022/11/15 09:46:31;;;;;;;11.80;9.20;;;11.60;99.90;;;;;;5054769;28;20049;-64
2022/11/15 09:48:59;;;;;;;14.00;9.25;;;11.60;99.90;;;;;;5054763;28;20048;-64
2022/11/15 09:51:35;;;;;;;11.90;8.77;;;11.60;99.90;;;;;;5054903;28;20404;-64
2022/11/15 09:54:24;;;;;;;;;;;11.60;99.90;;;;;;5055637;28;20103;-64
2022/11/15 09:56:51;;;;;;;10.82;8.15;;;11.60;99.90;;;;;;5054275;28;19971;-64
2022/11/15 09:59:17;;;;;;;13.38;9.02;;;11.50;99.90;;;;;;5054433;28;20098;-64
2022/11/15 10:01:54;;;;;;;11.85;9.20;;;11.50;99.90;;;;;;5054392;28;20419;-64
2022/11/15 10:04:22;;;;;;;13.55;9.48;;;11.60;99.90;;;;;;5037016;28;20055;-64
2022/11/15 10:07:27;;;;;;;12.80;9.25;;;11.50;99.90;;;;;;5037085;28;20481;-65
2022/11/15 10:09:59;;;;;;;11.68;8.68;;;11.60;99.90;;;;;;5054464;28;20048;-64
2022/11/15 10:12:26;;;;;;;11.93;8.35;;;11.50;99.90;;;;;;5054073;28;20055;-64
2022/11/15 10:15:11;;;;;;;11.30;8.43;;;11.50;99.90;;;;;;5053830;28;20051;-64
2022/11/15 10:18:06;;;;;;;10.88;8.38;;;11.50;99.90;;;;;;5054890;28;20132;-64
2022/11/15 10:20:40;;;;;;;10.73;7.80;;;11.50;99.90;;;;;;5054558;28;20045;-64
2022/11/15 10:23:10;;;;;;;11.55;8.27;;;11.50;99.90;;;;;;5054818;28;20037;-64
2022/11/15 10:25:38;;;;;;;10.00;6.97;;;11.50;99.90;;;;;;5054499;28;20052;-64
2022/11/15 10:28:31;;;;;;;9.98;7.38;;;11.60;99.90;;;;;;5053834;28;20052;-64
2022/11/15 10:31:00;;;;;;;10.13;7.40;;;11.50;99.90;;;;;;5053760;28;20123;-65
2022/11/15 10:33:37;;;;;;;10.25;7.65;;;11.60;99.90;;;;;;5053584;28;20044;-65
2022/11/15 10:36:09;;;;;;;9.23;7.45;;;11.60;99.90;;;;;;5054526;28;20048;-64
2022/11/15 10:38:50;;;;;;;9.88;7.20;;;11.70;99.90;;;;;;5053459;28;20436;-64
2022/11/15 10:41:31;;;;;;;12.63;7.57;;;11.70;99.90;;;;;;5053642;28;20045;-64
2022/11/15 10:44:21;;;;;;;9.93;7.60;;;11.70;99.90;;;;;;5036917;28;20041;-64
2022/11/15 10:47:21;;;;;;;9.82;7.38;;;11.70;99.90;;;;;;5052881;28;20068;-64
2022/11/15 10:49:57;;;;;;;10.48;7.78;;;11.70;99.90;;;;;;5053374;28;20049;-65
2022/11/15 10:52:24;;;;;;;9.15;6.70;;;11.70;99.90;;;;;;5053318;28;20037;-65
2022/11/15 10:55:28;;;;;;;10.10;6.80;;;11.70;99.90;;;;;;5053385;28;20044;-64
2022/11/15 10:58:22;;;;;;;10.57;7.50;;;11.80;99.90;;;;;;5036013;28;20080;-65
2022/11/15 11:00:48;;;;;;;9.40;6.35;;;11.90;99.90;;;;;;5053466;28;20499;-65
2022/11/15 11:03:33;;;;;;;9.45;6.70;;;12.00;99.90;;;;;;5053758;28;20029;-65
2022/11/15 11:06:12;;;;;;;8.48;6.28;;;12.00;99.90;;;;;;5053186;28;20048;-69
2022/11/15 11:08:38;;;;;;;8.20;6.38;;;12.00;99.90;;;;;;5054232;28;20120;-68
2022/11/15 11:11:05;;;;;;;8.07;6.20;;;12.00;99.90;;;;;;5053815;28;20170;-69
2022/11/15 11:13:39;;;;;;;9.43;6.55;;;12.00;99.90;;;;;;5052893;28;20140;-69
2022/11/15 11:16:28;;;;;;;7.57;5.70;;;12.20;99.90;;;;;;5053103;28;20052;-67
2022/11/15 11:19:37;;;;;;;6.10;4.45;;;12.40;99.90;;;;;;5053183;28;20041;-69
2022/11/15 11:22:15;;;;;;;5.25;4.28;;;12.50;99.90;;;;;;5053367;28;20396;-69
2022/11/15 11:25:16;;;;;;;6.78;4.75;;;12.50;99.90;;;;;;5053799;28;20045;-69
2022/11/15 11:27:53;;;;;;;5.25;3.97;;;12.50;99.90;;;;;;5053289;28;20429;-69
2022/11/15 11:30:43;;;;;;;8.55;2.90;;;12.50;99.90;;;;;;5052993;28;20048;-68
2022/11/15 11:33:21;;;;;;;4.32;3.22;;;12.50;99.90;;;;;;5052912;28;20076;-68
2022/11/15 11:35:52;;;;;;;5.70;3.05;;;12.40;99.90;;;;;;5053509;28;20115;-69
2022/11/15 11:38:38;;;;;;;4.43;3.22;;;12.30;99.90;;;;;;5035588;28;20544;-69
2022/11/15 11:41:10;;;;;;;5.25;2.88;;;12.40;99.90;;;;;;5035179;28;20041;-70
2022/11/15 11:44:03;;;;;;;3.97;2.80;;;12.40;99.90;;;;;;5036149;28;20048;-69
2022/11/15 11:46:35;;;;;;;4.50;3.03;;;12.50;99.90;;;;;;5052789;28;20041;-69
2022/11/15 11:49:09;;;;;;;4.85;3.40;;;12.50;99.90;;;;;;5053141;28;20373;-68
2022/11/15 11:51:40;;;;;;;5.03;2.90;;;12.30;99.90;;;;;;5052455;28;20492;-68
2022/11/15 11:54:38;;;;;;;5.55;2.92;;;12.30;99.90;;;;;;5053309;28;20355;-69
2022/11/15 11:57:12;;;;;;;4.47;2.97;;;12.40;99.90;;;;;;5052744;28;20053;-69
2022/11/15 11:59:57;;;;;;;4.07;3.00;;;12.50;99.90;;;;;;5056030;28;20056;-69
2022/11/15 12:02:35;;;;;;;4.47;2.50;;;12.50;99.90;;;;;;5056581;28;20047;-69
2022/11/15 12:05:27;;;;;;;3.95;2.85;;;12.50;99.90;;;;;;5057400;28;20040;-69
2022/11/15 12:08:00;;;;;;;5.50;3.00;;;12.50;99.90;;;;;;5056347;28;20040;-69
2022/11/15 12:10:32;;;;;;;4.55;2.65;;;12.40;99.90;;;;;;5057223;28;20079;-68
2022/11/15 12:13:06;;;;;;;3.83;2.53;;;12.40;99.90;;;;;;5056291;28;20060;-72
2022/11/15 12:15:39;;;;;;;5.68;2.65;;;12.30;99.90;;;;;;5056337;28;20539;-69
2022/11/15 12:18:05;;;;;;;4.80;2.85;;;12.20;99.90;;;;;;5056017;28;20477;-70
2022/11/15 12:20:37;;;;;;;3.25;2.10;;;12.20;99.90;;;;;;5038167;28;20044;-69
2022/11/15 12:23:18;;;;;;;3.45;2.03;;;12.30;99.90;;;;;;5056280;28;20500;-71
2022/11/15 12:26:08;;;;;;;3.33;1.98;;;12.30;99.90;;;;;;5056013;28;20051;-70
2022/11/15 12:28:45;;;;;;;2.80;1.70;;;12.30;99.90;;;;;;5055872;28;20196;-65
2022/11/15 12:31:11;;;;;;;4.53;1.95;;;12.30;99.90;;;;;;5056669;28;20048;-65
2022/11/15 12:33:42;;;;;;;4.60;1.80;;;12.40;99.90;;;;;;5056035;28;20381;-65
2022/11/15 12:36:34;;;;;;;4.47;1.70;;;12.40;99.90;;;;;;5055907;28;20055;-65
2022/11/15 12:39:06;;;;;;;4.03;1.80;;;12.50;99.90;;;;;;5055939;28;20048;-65
2022/11/15 12:41:37;;;;;;;2.47;1.40;;;12.60;99.90;;;;;;5055850;28;20059;-65
2022/11/15 12:44:09;;;;;;;2.47;1.48;;;12.60;99.90;;;;;;5055848;28;20037;-70
2022/11/15 12:46:41;;;;;;;4.78;1.98;;;12.70;99.90;;;;;;5055847;28;20179;-70
2022/11/15 12:49:25;;;;;;;3.35;2.13;;;12.70;99.90;;;;;;5055692;28;20131;-69
2022/11/15 12:51:52;;;;;;;4.25;2.20;;;12.80;99.90;;;;;;5037981;28;20048;-69
2022/11/15 12:54:23;;;;;;;3.78;1.92;;;12.80;99.90;;;;;;5055564;28;20044;-69
2022/11/15 12:57:07;;;;;;;4.30;2.13;;;12.90;99.90;;;;;;5055649;28;20041;-68
2022/11/15 12:59:57;;;;;;;2.92;2.00;;;12.90;99.90;;;;;;5056187;28;20120;-69
2022/11/15 13:02:46;;;;;;;2.92;1.70;;;12.90;99.90;;;;;;5055882;28;20448;-68
2022/11/15 13:05:18;;;;;;;3.55;1.75;;;12.90;99.90;;;;;;5038530;28;20045;-68
2022/11/15 13:07:46;;;;;;;2.78;1.70;;;12.80;99.90;;;;;;5055363;28;20041;-68